Time;durP1;ratioP1;P1;durP2;ratioP2;P2;SDS_P1;SDS_P2;PMS_P1;PMS_P2;Temp;Humidity;BMP_temperature;BMP_pressure;BME280_temperature;BME280_humidity;BME280_pressure;Samples;Min_cycle;Max_cycle;Signal;HPM_P1;HPM_P2
2022/07/16 00:01:22;;;;;;;8.85;2.78;;;;;;;-141.50;100.00;63355.56;5032596;28;20457;-77
2022/07/16 00:01:47;;;;;;;8.90;2.80;;;;;;;-141.50;100.00;63355.56;5045307;28;20428;-78
2022/07/16 00:04:14;;;;;;;6.88;2.70;;;;;;;-141.50;100.00;63355.56;5050687;28;20590;-78
2022/07/16 00:06:43;;;;;;;9.07;2.88;;;;;;;-141.50;100.00;63355.56;5033974;28;20117;-78
2022/07/16 00:09:12;;;;;;;8.27;2.35;;;;;;;-141.50;100.00;63355.56;5054197;28;20088;-78
2022/07/16 00:11:38;;;;;;;7.75;2.72;;;;;;;-141.50;100.00;63355.56;5054875;28;20077;-78
2022/07/16 00:14:05;;;;;;;8.77;2.70;;;;;;;-141.50;100.00;63355.56;5055443;28;20190;-79
2022/07/16 00:16:32;;;;;;;9.73;2.92;;;;;;;-141.50;100.00;63355.56;5052710;28;20131;-78
2022/07/16 00:19:19;;;;;;;5.30;2.42;;;;;;;-141.50;100.00;63355.56;5051557;28;20075;-78
2022/07/16 00:21:48;;;;;;;11.88;2.88;;;;;;;-141.50;100.00;63355.56;5052416;28;20080;-80
2022/07/16 00:24:15;;;;;;;6.85;2.40;;;;;;;-141.50;100.00;63355.56;5050722;28;20107;-78
2022/07/16 00:26:42;;;;;;;4.90;2.35;;;;;;;-141.50;100.00;63355.56;5051878;28;20107;-79
2022/07/16 00:29:09;;;;;;;6.50;2.42;;;;;;;-141.50;100.00;63355.56;5052627;28;20053;-78
2022/07/16 00:31:36;;;;;;;10.13;2.47;;;;;;;-141.50;100.00;63355.56;5051706;28;20049;-77
2022/07/16 00:34:09;;;;;;;6.45;3.00;;;;;;;-141.50;100.00;63355.56;5052481;28;20244;-79
2022/07/16 00:36:37;;;;;;;10.52;2.92;;;;;;;-141.50;100.00;63355.56;5058667;28;20053;-79
2022/07/16 00:39:05;;;;;;;9.60;2.83;;;;;;;-141.50;100.00;63355.56;5061096;28;20489;-79
2022/07/16 00:41:32;;;;;;;6.28;2.35;;;;;;;-141.50;100.00;63355.56;5049842;28;20074;-80
2022/07/16 00:44:04;;;;;;;4.95;2.72;;;;;;;-141.50;100.00;63355.56;5040171;28;20076;-79
2022/07/16 00:46:31;;;;;;;5.78;2.95;;;;;;;-141.50;100.00;63355.56;5040263;28;20049;-80
2022/07/16 00:48:58;;;;;;;7.45;3.15;;;;;;;-141.50;100.00;63355.56;5042908;28;20370;-79
2022/07/16 00:51:26;;;;;;;7.97;2.88;;;;;;;-141.50;100.00;63355.56;5040375;28;20068;-79
2022/07/16 00:53:54;;;;;;;6.13;2.47;;;;;;;-141.50;100.00;63355.56;5040141;28;20053;-78
2022/07/16 00:56:21;;;;;;;9.25;2.80;;;;;;;-141.50;100.00;63355.56;5024254;28;20061;-78
2022/07/16 00:58:49;;;;;;;9.02;2.95;;;;;;;-141.50;100.00;63355.56;5042015;28;20045;-79
2022/07/16 01:01:17;;;;;;;6.07;2.50;;;;;;;-141.50;100.00;63355.56;5026640;28;20049;-79
2022/07/16 01:03:44;;;;;;;6.80;2.33;;;;;;;-141.50;100.00;63355.56;5043625;28;20053;-79
2022/07/16 01:06:12;;;;;;;8.45;2.30;;;;;;;-141.50;100.00;63355.56;5044383;28;20095;-78
2022/07/16 01:08:42;;;;;;;7.13;2.28;;;;;;;-141.50;100.00;63355.56;5040575;28;20493;-78
2022/07/16 01:11:11;;;;;;;5.57;2.20;;;;;;;-141.50;100.00;63355.56;5038560;28;20049;-78
2022/07/16 01:13:40;;;;;;;6.13;1.95;;;;;;;-141.50;100.00;63355.56;5022831;28;20053;-79
2022/07/16 01:16:08;;;;;;;9.23;2.03;;;;;;;-141.50;100.00;63355.56;5034098;28;20053;-78
2022/07/16 01:18:39;;;;;;;5.05;1.92;;;;;;;-141.50;100.00;63355.56;5014510;28;20096;-78
2022/07/16 01:21:05;;;;;;;7.03;2.00;;;;;;;-141.50;100.00;63355.56;5032480;28;20084;-78
2022/07/16 01:23:33;;;;;;;7.18;2.13;;;;;;;-141.50;100.00;63355.56;5029574;28;20124;-77
2022/07/16 01:26:00;;;;;;;5.00;1.63;;;;;;;-141.50;100.00;63355.56;5033637;28;20400;-79
2022/07/16 01:28:27;;;;;;;6.25;2.00;;;;;;;-141.50;100.00;63355.56;5033306;28;20053;-80
2022/07/16 01:30:54;;;;;;;5.85;2.72;;;;;;;-141.50;100.00;63355.56;5028899;28;20486;-79
2022/07/16 01:33:29;;;;;;;7.53;2.60;;;;;;;-141.50;100.00;63355.56;5029501;28;20084;-79
2022/07/16 01:35:59;;;;;;;5.38;2.20;;;;;;;-141.50;100.00;63355.56;5030311;28;20046;-78
2022/07/16 01:38:27;;;;;;;10.32;2.67;;;;;;;-141.50;100.00;63355.56;5037893;28;20037;-78
2022/07/16 01:40:54;;;;;;;4.88;2.00;;;;;;;-141.50;100.00;63355.56;5042027;28;20056;-77
2022/07/16 01:43:24;;;;;;;5.30;2.05;;;;;;;-141.50;100.00;63355.56;5030697;28;20111;-78
2022/07/16 01:45:52;;;;;;;7.25;2.15;;;;;;;-141.50;100.00;63355.56;5031134;28;20046;-79
2022/07/16 01:48:19;;;;;;;5.10;1.92;;;;;;;-141.50;100.00;63355.56;5033160;28;20045;-77
2022/07/16 01:50:46;;;;;;;10.15;2.38;;;;;;;-141.50;100.00;63355.56;5034334;28;20144;-78
2022/07/16 01:53:13;;;;;;;5.90;1.85;;;;;;;-141.50;100.00;63355.56;5034282;28;20049;-78
2022/07/16 01:55:42;;;;;;;8.05;2.30;;;;;;;-141.50;100.00;63355.56;5029984;28;20042;-78
2022/07/16 01:58:11;;;;;;;4.63;1.80;;;;;;;-141.50;100.00;63355.56;5028496;28;20490;-79
2022/07/16 02:00:39;;;;;;;4.78;1.60;;;;;;;-141.50;100.00;63355.56;5030323;28;20049;-78
2022/07/16 02:03:07;;;;;;;9.07;2.08;;;;;;;-141.50;100.00;63355.56;5029661;28;20053;-77
2022/07/16 02:05:34;;;;;;;9.13;2.60;;;;;;;-141.50;100.00;63355.56;5029288;28;20493;-77
2022/07/16 02:08:02;;;;;;;11.85;3.05;;;;;;;-141.50;100.00;63355.56;5028426;28;20045;-78
2022/07/16 02:10:29;;;;;;;6.95;2.50;;;;;;;-141.50;100.00;63355.56;5031800;28;20133;-78
2022/07/16 02:12:56;;;;;;;8.18;2.38;;;;;;;-141.50;100.00;63355.56;5028201;28;20457;-78
2022/07/16 02:15:23;;;;;;;7.25;2.40;;;;;;;-141.50;100.00;63355.56;5028286;28;20045;-78
2022/07/16 02:17:49;;;;;;;5.32;2.30;;;;;;;-141.50;100.00;63355.56;5010619;28;20127;-78
2022/07/16 02:20:17;;;;;;;3.30;1.80;;;;;;;-141.50;100.00;63355.56;5029029;28;20045;-78
2022/07/16 02:22:44;;;;;;;4.20;1.85;;;;;;;-141.50;100.00;63355.56;5027357;28;20053;-79
2022/07/16 02:25:11;;;;;;;4.95;1.90;;;;;;;-141.50;100.00;63355.56;5030155;28;20141;-79
2022/07/16 02:28:05;;;;;;;9.32;2.50;;;;;;;-141.50;100.00;63355.56;5029352;28;20184;-78
2022/07/16 02:30:27;;;;;;;7.65;2.60;;;;;;;-141.50;100.00;63355.56;5028730;28;20133;-77
2022/07/16 02:32:54;;;;;;;8.02;2.50;;;;;;;-141.50;100.00;63355.56;5028359;28;20395;-78
2022/07/16 02:35:21;;;;;;;8.45;2.35;;;;;;;-141.50;100.00;63355.56;5029467;28;20056;-78
2022/07/16 02:37:48;;;;;;;9.90;2.67;;;;;;;-141.50;100.00;63355.56;5033542;28;20128;-78
2022/07/16 02:40:15;;;;;;;5.50;2.60;;;;;;;-141.50;100.00;63355.56;5048343;28;20064;-78
2022/07/16 02:42:42;;;;;;;12.57;2.53;;;;;;;-141.50;100.00;63355.56;5049608;28;20095;-78
2022/07/16 02:45:10;;;;;;;8.25;3.15;;;;;;;-141.50;100.00;63355.56;5034676;28;20088;-78
2022/07/16 02:47:37;;;;;;;7.18;2.30;;;;;;;-141.50;100.00;63355.56;5037272;28;20080;-78
2022/07/16 02:50:06;;;;;;;6.43;2.20;;;;;;;-141.50;100.00;63355.56;5051370;28;20099;-77
2022/07/16 02:52:33;;;;;;;6.93;2.40;;;;;;;-141.50;100.00;63355.56;5050337;28;20081;-79
2022/07/16 02:54:59;;;;;;;4.05;2.13;;;;;;;-141.50;100.00;63355.56;5049925;28;20145;-79
2022/07/16 02:57:26;;;;;;;7.05;2.35;;;;;;;-141.50;100.00;63355.56;5037190;28;20525;-80
2022/07/16 02:59:52;;;;;;;6.78;2.50;;;;;;;-141.50;100.00;63355.56;5060056;28;20056;-79
2022/07/16 03:02:19;;;;;;;9.20;2.65;;;;;;;-141.50;100.00;63355.56;5057936;28;20494;-79
2022/07/16 03:04:46;;;;;;;6.78;2.58;;;;;;;-141.50;100.00;63355.56;5063764;28;20065;-79
2022/07/16 03:07:13;;;;;;;8.27;2.88;;;;;;;-141.50;100.00;63355.56;5062185;28;20049;-79
2022/07/16 03:09:39;;;;;;;7.90;2.83;;;;;;;-141.50;100.00;63355.56;5032225;28;20142;-78
2022/07/16 03:12:06;;;;;;;6.28;2.55;;;;;;;-141.50;100.00;63355.56;5057454;28;20053;-76
2022/07/16 03:14:33;;;;;;;8.20;2.80;;;;;;;-141.50;100.00;63355.56;5052615;28;20132;-78
2022/07/16 03:16:59;;;;;;;7.75;2.30;;;;;;;-141.50;100.00;63355.56;5053512;28;20044;-79
2022/07/16 03:19:26;;;;;;;11.07;2.75;;;;;;;-141.50;100.00;63355.56;5053662;28;20140;-78
2022/07/16 03:21:52;;;;;;;8.85;2.65;;;;;;;-141.50;100.00;63355.56;5066859;28;20563;-79
2022/07/16 03:24:19;;;;;;;7.85;2.65;;;;;;;-141.50;100.00;63355.56;5066040;28;20104;-81
2022/07/16 03:26:45;;;;;;;6.80;2.40;;;;;;;-141.50;100.00;63355.56;5070851;28;20045;-79
2022/07/16 03:29:12;;;;;;;9.02;2.50;;;;;;;-141.50;100.00;63355.56;5068449;28;20049;-79
2022/07/16 03:31:38;;;;;;;10.48;2.70;;;;;;;-141.50;100.00;63355.56;5064134;28;20053;-78
2022/07/16 03:34:05;;;;;;;8.13;2.58;;;;;;;-141.50;100.00;63355.56;5051947;28;20044;-78
2022/07/16 03:36:31;;;;;;;4.85;2.60;;;;;;;-141.50;100.00;63355.56;5052545;28;20512;-76
2022/07/16 03:39:00;;;;;;;6.18;2.70;;;;;;;-141.50;100.00;63355.56;5049040;28;20080;-77
2022/07/16 03:41:27;;;;;;;9.63;3.10;;;;;;;-141.50;100.00;63355.56;5038466;28;20080;-78
2022/07/16 03:43:53;;;;;;;8.60;2.95;;;;;;;-141.50;100.00;63355.56;5031847;28;20085;-79
2022/07/16 03:46:20;;;;;;;9.23;3.05;;;;;;;-141.50;100.00;63355.56;5031273;28;20053;-78
2022/07/16 03:48:47;;;;;;;7.07;2.97;;;;;;;-141.50;100.00;63355.56;5032171;28;20128;-78
2022/07/16 03:51:14;;;;;;;8.43;2.90;;;;;;;-141.50;100.00;63355.56;5036158;28;20155;-80
2022/07/16 03:53:40;;;;;;;7.45;3.00;;;;;;;-141.50;100.00;63355.56;5038334;28;20057;-79
2022/07/16 03:56:07;;;;;;;8.90;2.90;;;;;;;-141.50;100.00;63355.56;5035183;28;20057;-78
2022/07/16 03:58:35;;;;;;;7.38;2.67;;;;;;;-141.50;100.00;63355.56;5033219;28;20107;-78
2022/07/16 04:01:01;;;;;;;7.28;2.20;;;;;;;-141.50;100.00;63355.56;5028658;28;20057;-78
2022/07/16 04:03:28;;;;;;;6.53;2.67;;;;;;;-141.50;100.00;63355.56;5044406;28;20044;-78
2022/07/16 04:05:55;;;;;;;9.55;2.70;;;;;;;-141.50;100.00;63355.56;5056279;28;20040;-78
2022/07/16 04:08:21;;;;;;;6.68;2.70;;;;;;;-141.50;100.00;63355.56;5054306;28;20033;-77
2022/07/16 04:10:48;;;;;;;7.10;2.60;;;;;;;-141.50;100.00;63355.56;5030788;28;20064;-77
2022/07/16 04:13:15;;;;;;;6.32;3.30;;;;;;;-141.50;100.00;63355.56;5032067;28;20102;-76
2022/07/16 04:15:41;;;;;;;5.30;2.65;;;;;;;-141.50;100.00;63355.56;5030041;28;20050;-78
2022/07/16 04:18:08;;;;;;;9.70;3.00;;;;;;;-141.50;100.00;63355.56;5030768;28;20098;-77
2022/07/16 04:20:35;;;;;;;11.65;2.63;;;;;;;-141.50;100.00;63355.56;5029715;28;20132;-80
2022/07/16 04:23:02;;;;;;;5.15;2.55;;;;;;;-141.50;100.00;63355.56;5031053;28;20144;-77
2022/07/16 04:25:29;;;;;;;7.35;3.03;;;;;;;-141.50;100.00;63355.56;5027975;28;20164;-80
2022/07/16 04:27:55;;;;;;;4.60;2.58;;;;;;;-141.50;100.00;63355.56;5030364;28;20076;-77
2022/07/16 04:30:22;;;;;;;6.30;2.47;;;;;;;-141.50;100.00;63355.56;5012172;28;20045;-76
2022/07/16 04:32:48;;;;;;;6.07;2.40;;;;;;;-141.50;100.00;63355.56;5029240;28;20095;-77
2022/07/16 04:35:16;;;;;;;8.32;2.78;;;;;;;-141.50;100.00;63355.56;5029974;28;20041;-78
2022/07/16 04:37:43;;;;;;;7.20;2.47;;;;;;;-141.50;100.00;63355.56;5013474;28;20522;-78
2022/07/16 04:40:11;;;;;;;8.63;3.13;;;;;;;-141.50;100.00;63355.56;5046976;28;20052;-78
2022/07/16 04:42:43;;;;;;;7.32;2.60;;;;;;;-141.50;100.00;63355.56;5029615;28;20111;-78
2022/07/16 04:45:12;;;;;;;8.60;2.97;;;;;;;-141.50;100.00;63355.56;5030655;28;20052;-77
2022/07/16 04:47:40;;;;;;;9.38;2.08;;;;;;;-141.50;100.00;63355.56;5029839;28;20542;-76
2022/07/16 04:50:08;;;;;;;9.77;2.58;;;;;;;-141.50;100.00;63355.56;5029730;28;20054;-77
2022/07/16 04:52:34;;;;;;;8.23;1.83;;;;;;;-141.50;100.00;63355.56;5011458;28;20094;-75
2022/07/16 04:55:04;;;;;;;7.03;1.30;;;;;;;-141.50;100.00;63355.56;5027810;28;20055;-76
2022/07/16 04:57:31;;;;;;;7.22;1.10;;;;;;;-141.50;100.00;63355.56;5029961;28;20053;-77
2022/07/16 04:59:57;;;;;;;4.18;1.27;;;;;;;-141.50;100.00;63355.56;5029601;28;20149;-75
2022/07/16 05:05:12;;;;;;;8.43;1.25;;;;;;;-141.50;100.00;63355.56;5031881;28;20124;-76
2022/07/16 05:07:38;;;;;;;5.50;1.40;;;;;;;-141.50;100.00;63355.56;5044388;28;21054;-77
2022/07/16 05:10:05;;;;;;;7.00;1.38;;;;;;;-141.50;100.00;63355.56;5049654;28;20113;-79
2022/07/16 05:12:32;;;;;;;3.53;1.15;;;;;;;-141.50;100.00;63355.56;5048049;28;20049;-78
2022/07/16 05:14:59;;;;;;;8.88;1.67;;;;;;;-141.50;100.00;63355.56;5049444;28;20103;-79
2022/07/16 05:17:25;;;;;;;3.45;1.20;;;;;;;-141.50;100.00;63355.56;5048607;28;20447;-76
2022/07/16 05:19:52;;;;;;;7.28;1.40;;;;;;;-141.50;100.00;63355.56;5050482;28;20128;-77
2022/07/16 05:22:18;;;;;;;4.97;1.15;;;;;;;-141.50;100.00;63355.56;5048420;28;20053;-78
2022/07/16 05:24:45;;;;;;;5.43;1.40;;;;;;;-141.50;100.00;63355.56;5047877;28;20049;-78
2022/07/16 05:27:11;;;;;;;5.80;1.05;;;;;;;-141.50;100.00;63355.56;5048769;28;20053;-78
2022/07/16 05:29:38;;;;;;;6.97;1.17;;;;;;;-141.50;100.00;63355.56;5048109;28;20484;-78
2022/07/16 05:32:05;;;;;;;4.70;1.55;;;;;;;-141.50;100.00;63355.56;5046952;28;20048;-76
2022/07/16 05:34:32;;;;;;;11.90;1.10;;;;;;;-141.50;100.00;63355.56;5048374;28;20713;-77
2022/07/16 05:36:58;;;;;;;4.90;1.38;;;;;;;-141.50;100.00;63355.56;5039237;28;20498;-76
2022/07/16 05:39:29;;;;;;;8.25;1.30;;;;;;;-141.50;100.00;63355.56;5046616;28;20059;-78
2022/07/16 05:41:57;;;;;;;6.95;1.33;;;;;;;-141.50;100.00;63355.56;5051630;28;20055;-78
2022/07/16 05:44:33;;;;;;;5.22;1.30;;;;;;;-141.50;100.00;63355.56;5040059;28;20668;-77
2022/07/16 05:47:00;;;;;;;3.40;1.02;;;;;;;-141.50;100.00;63355.56;5052782;28;20143;-78
2022/07/16 05:49:26;;;;;;;7.47;1.63;;;;;;;-141.50;100.00;63355.56;5050495;28;20067;-78
2022/07/16 05:51:53;;;;;;;8.65;1.35;;;;;;;-141.50;100.00;63355.56;5041170;28;20522;-79
2022/07/16 05:54:19;;;;;;;6.10;1.20;;;;;;;-141.50;100.00;63355.56;5049768;28;20041;-77
2022/07/16 05:56:46;;;;;;;7.88;1.13;;;;;;;-141.50;100.00;63355.56;5051033;28;20512;-77
2022/07/16 05:59:13;;;;;;;5.32;1.33;;;;;;;-141.50;100.00;63355.56;5039323;28;20053;-78
2022/07/16 06:01:42;;;;;;;4.97;1.10;;;;;;;-141.50;100.00;63355.56;5058762;28;20049;-78
2022/07/16 06:04:15;;;;;;;3.88;1.27;;;;;;;-141.50;100.00;63355.56;5054677;28;20057;-77
2022/07/16 06:06:41;;;;;;;6.00;1.35;;;;;;;-141.50;100.00;63355.56;5053103;28;20083;-78
2022/07/16 06:09:09;;;;;;;6.70;1.20;;;;;;;-141.50;100.00;63355.56;5050434;28;20057;-77
2022/07/16 06:11:36;;;;;;;5.45;1.05;;;;;;;-141.50;100.00;63355.56;5052859;28;20048;-77
2022/07/16 06:14:03;;;;;;;6.20;1.50;;;;;;;-141.50;100.00;63355.56;5059855;28;20129;-80
2022/07/16 06:16:30;;;;;;;5.55;1.20;;;;;;;-141.50;100.00;63355.56;5063059;28;20045;-79
2022/07/16 06:18:56;;;;;;;7.65;1.38;;;;;;;-141.50;100.00;63355.56;5054352;28;20045;-79
2022/07/16 06:21:23;;;;;;;4.70;1.13;;;;;;;-141.50;100.00;63355.56;5058560;28;20068;-79
2022/07/16 06:23:49;;;;;;;4.32;1.30;;;;;;;-141.50;100.00;63355.56;5059537;28;20826;-79
2022/07/16 06:26:16;;;;;;;4.05;1.20;;;;;;;-141.50;100.00;63355.56;5051361;28;20494;-78
2022/07/16 06:28:42;;;;;;;5.25;1.30;;;;;;;-141.50;100.00;63355.56;5042759;28;20072;-82
2022/07/16 06:31:09;;;;;;;3.17;1.10;;;;;;;-141.50;100.00;63355.56;5056465;28;20118;-79
2022/07/16 06:33:35;;;;;;;4.30;1.10;;;;;;;-141.50;100.00;63355.56;5056525;28;20056;-81
2022/07/16 06:36:03;;;;;;;7.10;1.30;;;;;;;-141.50;100.00;63355.56;5058072;28;20079;-74
2022/07/16 06:38:30;;;;;;;5.00;0.88;;;;;;;-141.50;100.00;63355.56;5056029;28;20467;-78
2022/07/16 06:40:56;;;;;;;3.83;1.00;;;;;;;-141.50;100.00;63355.56;5022662;28;20107;-78
2022/07/16 06:43:23;;;;;;;6.45;1.38;;;;;;;-141.50;100.00;63355.56;5043281;28;20080;-78
2022/07/16 06:45:50;;;;;;;4.55;1.00;;;;;;;-141.50;100.00;63355.56;5040583;28;20160;-79
2022/07/16 06:48:18;;;;;;;6.82;0.98;;;;;;;-141.50;100.00;63355.56;5034516;28;20045;-76
2022/07/16 06:50:45;;;;;;;5.75;1.27;;;;;;;-141.50;100.00;63355.56;5033718;28;20045;-77
2022/07/16 06:53:11;;;;;;;2.75;0.90;;;;;;;-141.50;100.00;63355.56;5018457;28;20076;-75
2022/07/16 06:55:38;;;;;;;3.58;0.80;;;;;;;-141.50;100.00;63355.56;5049389;28;20128;-79
2022/07/16 06:58:04;;;;;;;2.92;1.02;;;;;;;-141.50;100.00;63355.56;5051831;28;20092;-79
2022/07/16 07:00:31;;;;;;;3.78;1.20;;;;;;;-141.50;100.00;63355.56;5041846;28;20092;-77
2022/07/16 07:02:57;;;;;;;4.75;0.90;;;;;;;-141.50;100.00;63355.56;5033933;28;20612;-78
2022/07/16 07:05:24;;;;;;;2.92;1.10;;;;;;;-141.50;100.00;63355.56;5046463;28;20053;-78
2022/07/16 07:07:51;;;;;;;5.40;1.15;;;;;;;-141.50;100.00;63355.56;5045255;28;20065;-78
2022/07/16 07:10:19;;;;;;;8.38;1.10;;;;;;;-141.50;100.00;63355.56;5044170;28;20416;-77
2022/07/16 07:12:46;;;;;;;4.32;0.90;;;;;;;-141.50;100.00;63355.56;5036221;28;20041;-77
2022/07/16 07:15:13;;;;;;;3.13;1.00;;;;;;;-141.50;100.00;63355.56;5037837;28;20564;-77
2022/07/16 07:17:39;;;;;;;5.82;1.02;;;;;;;-141.50;100.00;63355.56;5047894;28;20718;-76
2022/07/16 07:20:07;;;;;;;3.20;0.90;;;;;;;-141.50;100.00;63355.56;5032039;28;20468;-75
2022/07/16 07:22:33;;;;;;;4.00;1.08;;;;;;;-141.50;100.00;63355.56;5047326;28;20143;-77
2022/07/16 07:25:00;;;;;;;6.28;1.00;;;;;;;-141.50;100.00;63355.56;5041654;28;20111;-78
2022/07/16 07:27:27;;;;;;;5.10;1.20;;;;;;;-141.50;100.00;63355.56;5027384;28;20558;-79
2022/07/16 07:29:53;;;;;;;3.78;1.10;;;;;;;-141.50;100.00;63355.56;5038745;28;20091;-78
2022/07/16 07:32:20;;;;;;;8.02;1.40;;;;;;;-141.50;100.00;63355.56;5050051;28;20593;-79
2022/07/16 07:34:47;;;;;;;5.70;1.15;;;;;;;-141.50;100.00;63355.56;5069145;28;20029;-80
2022/07/16 07:37:13;;;;;;;3.05;1.15;;;;;;;-141.50;100.00;63355.56;5053966;28;20060;-77
2022/07/16 07:39:40;;;;;;;2.92;1.13;;;;;;;-141.50;100.00;63355.56;5055812;28;20055;-78
2022/07/16 07:42:06;;;;;;;2.90;1.20;;;;;;;-141.50;100.00;63355.56;5044679;28;20053;-78
2022/07/16 07:44:33;;;;;;;7.15;1.40;;;;;;;-141.50;100.00;63355.56;5043077;28;20500;-76
2022/07/16 07:46:59;;;;;;;7.63;1.40;;;;;;;-141.50;100.00;63355.56;5039846;28;20542;-77
2022/07/16 07:49:27;;;;;;;5.57;1.40;;;;;;;-141.50;100.00;63355.56;5049352;28;20053;-78
2022/07/16 07:51:54;;;;;;;5.10;1.30;;;;;;;-141.50;100.00;63355.56;5049340;28;20060;-77
2022/07/16 07:54:21;;;;;;;3.45;1.27;;;;;;;-141.50;100.00;63355.56;5047276;28;20079;-77
2022/07/16 07:56:48;;;;;;;16.73;1.77;;;;;;;-141.50;100.00;63355.56;5012350;28;20049;-77
2022/07/16 07:59:15;;;;;;;7.45;1.35;;;;;;;-141.50;100.00;63355.56;5038392;28;20098;-77
2022/07/16 08:01:42;;;;;;;5.18;1.60;;;;;;;-141.50;100.00;63355.56;5029713;28;20133;-78
2022/07/16 08:04:10;;;;;;;5.25;1.40;;;;;;;-141.50;100.00;63355.56;5032373;28;20117;-78
2022/07/16 08:06:37;;;;;;;8.98;1.70;;;;;;;-141.50;100.00;63355.56;5027397;28;20049;-78
2022/07/16 08:09:04;;;;;;;5.60;1.50;;;;;;;-141.50;100.00;63355.56;5045521;28;20148;-77
2022/07/16 08:11:32;;;;;;;8.25;1.65;;;;;;;-141.50;100.00;63355.56;5046585;28;20460;-76
2022/07/16 08:13:59;;;;;;;6.35;1.50;;;;;;;-141.50;100.00;63355.56;5048137;28;20117;-75
2022/07/16 08:16:45;;;;;;;5.68;1.42;;;;;;;-141.50;100.00;63355.56;5047509;28;20120;-76
2022/07/16 08:19:12;;;;;;;5.68;1.38;;;;;;;-141.50;100.00;63355.56;5043635;28;20084;-76
2022/07/16 08:21:39;;;;;;;8.23;1.60;;;;;;;-141.50;100.00;63355.56;5041861;28;20128;-76
2022/07/16 08:26:50;;;;;;;6.53;1.70;;;;;;;-141.50;100.00;63355.56;5035817;28;20052;-77
2022/07/16 08:29:17;;;;;;;6.82;1.50;;;;;;;-141.50;100.00;63355.56;5032440;28;20052;-77
2022/07/16 08:31:43;;;;;;;5.07;1.45;;;;;;;-141.50;100.00;63355.56;5046115;28;20053;-77
2022/07/16 08:34:10;;;;;;;5.22;1.67;;;;;;;-141.50;100.00;63355.56;5046889;28;20057;-77
2022/07/16 08:36:37;;;;;;;5.90;1.60;;;;;;;-141.50;100.00;63355.56;5046286;28;20129;-77
2022/07/16 08:39:03;;;;;;;4.63;1.50;;;;;;;-141.50;100.00;63355.56;5047500;28;20061;-77
2022/07/16 08:41:31;;;;;;;3.83;1.55;;;;;;;-141.50;100.00;63355.56;5049397;28;20136;-77
2022/07/16 08:43:58;;;;;;;7.78;1.50;;;;;;;-141.50;100.00;63355.56;5047464;28;20057;-76
2022/07/16 08:46:26;;;;;;;6.80;1.80;;;;;;;-141.50;100.00;63355.56;5049135;28;20060;-76
2022/07/16 08:48:53;;;;;;;8.20;1.65;;;;;;;-141.50;100.00;63355.56;5045925;28;20065;-75
2022/07/16 08:51:30;;;;;;;5.47;1.45;;;;;;;-141.50;100.00;63355.56;5031213;28;20602;-76
2022/07/16 08:54:12;;;;;;;7.63;1.77;;;;;;;-141.50;100.00;63355.56;5046727;28;20049;-76
2022/07/16 08:56:41;;;;;;;8.48;1.95;;;;;;;-141.50;100.00;63355.56;5043509;28;20080;-76
2022/07/16 08:59:08;;;;;;;5.10;1.50;;;;;;;-141.50;100.00;63355.56;5045461;28;20515;-76
2022/07/16 09:01:35;;;;;;;7.32;1.63;;;;;;;-141.50;100.00;63355.56;5044971;28;20052;-76
2022/07/16 09:04:03;;;;;;;7.28;1.50;;;;;;;-141.50;100.00;63355.56;5046505;28;20157;-76
2022/07/16 09:06:30;;;;;;;6.03;1.60;;;;;;;-141.50;100.00;63355.56;5046537;28;20505;-76
2022/07/16 09:09:00;;;;;;;3.78;1.70;;;;;;;-141.50;100.00;63355.56;5027403;28;20053;-76
2022/07/16 09:11:30;;;;;;;6.88;1.65;;;;;;;-141.50;100.00;63355.56;5045697;28;20620;-77
2022/07/16 09:14:10;;;;;;;4.50;1.50;;;;;;;-141.50;100.00;63355.56;5033750;28;20107;-76
2022/07/16 09:16:39;;;;;;;6.47;1.70;;;;;;;-141.50;100.00;63355.56;5038949;28;20049;-76
2022/07/16 09:19:17;;;;;;;6.70;2.05;;;;;;;-141.50;100.00;63355.56;5014836;28;20073;-76
2022/07/16 09:22:12;;;;;;;6.50;1.67;;;;;;;-141.50;100.00;63355.56;5039355;28;20081;-77
2022/07/16 09:24:43;;;;;;;5.65;1.48;;;;;;;-141.50;100.00;63355.56;5031158;28;20051;-77
2022/07/16 09:27:13;;;;;;;10.15;1.83;;;;;;;-141.50;100.00;63355.56;5039142;28;20060;-77
2022/07/16 09:29:44;;;;;;;5.65;1.70;;;;;;;-141.50;100.00;63355.56;5035989;28;20045;-76
2022/07/16 09:32:30;;;;;;;5.03;1.52;;;;;;;-141.50;100.00;63355.56;5027534;28;20077;-76
2022/07/16 09:35:04;;;;;;;;;;;;;;;-141.50;100.00;63355.56;5054462;28;20088;-75
2022/07/16 09:37:54;;;;;;;7.20;1.52;;;;;;;-141.50;100.00;63355.56;5047060;28;19929;-76
2022/07/16 09:40:36;;;;;;;7.63;1.60;;;;;;;-141.50;100.00;63355.56;5042247;28;20055;-76
2022/07/16 09:43:23;;;;;;;5.75;1.85;;;;;;;-141.50;100.00;63355.56;5025041;28;20103;-76
2022/07/16 09:45:57;;;;;;;5.72;1.55;;;;;;;-141.50;100.00;63355.56;5025564;28;20049;-77
2022/07/16 09:48:27;;;;;;;6.15;1.60;;;;;;;-141.50;100.00;63355.56;5028621;28;20100;-77
2022/07/16 09:50:57;;;;;;;12.63;1.77;;;;;;;-141.50;100.00;63355.56;5047064;28;20064;-77
2022/07/16 09:53:25;;;;;;;8.50;1.90;;;;;;;-141.50;100.00;63355.56;5034378;28;20075;-77
2022/07/16 09:56:07;;;;;;;7.30;2.03;;;;;;;-141.50;100.00;63355.56;5052211;28;20069;-77
2022/07/16 09:58:35;;;;;;;6.55;2.22;;;;;;;-141.50;100.00;63355.56;5032873;28;20132;-77
2022/07/16 10:01:04;;;;;;;8.05;2.00;;;;;;;-141.50;100.00;63355.56;5048238;28;20130;-77
2022/07/16 10:03:32;;;;;;;7.20;2.10;;;;;;;-141.50;100.00;63355.56;5048509;28;20061;-76
2022/07/16 10:05:59;;;;;;;7.88;2.20;;;;;;;-141.50;100.00;63355.56;5049584;28;20056;-78
2022/07/16 10:08:26;;;;;;;5.80;2.00;;;;;;;-141.50;100.00;63355.56;5049774;28;20106;-76
2022/07/16 10:10:52;;;;;;;5.72;2.03;;;;;;;-141.50;100.00;63355.56;5031791;28;20053;-78
2022/07/16 10:13:26;;;;;;;9.63;2.10;;;;;;;-141.50;100.00;63355.56;5032513;28;20511;-77
2022/07/16 10:15:53;;;;;;;7.75;1.95;;;;;;;-141.50;100.00;63355.56;5051703;28;20072;-78
2022/07/16 10:18:35;;;;;;;4.70;1.83;;;;;;;-141.50;100.00;63355.56;5045136;28;20049;-78
2022/07/16 10:21:19;;;;;;;4.50;1.80;;;;;;;-141.50;100.00;63355.56;5029867;28;20085;-77
2022/07/16 10:24:05;;;;;;;7.03;1.90;;;;;;;-141.50;100.00;63355.56;5030337;28;20061;-76
2022/07/16 10:26:32;;;;;;;;;;;;;;;-141.50;100.00;63355.56;5048673;28;20801;-77
2022/07/16 10:29:00;;;;;;;8.63;2.05;;;;;;;-141.50;100.00;63355.56;5047916;28;19925;-76
2022/07/16 10:31:39;;;;;;;3.45;1.58;;;;;;;-141.50;100.00;63355.56;5047184;28;20060;-77
2022/07/16 10:34:15;;;;;;;3.75;1.80;;;;;;;-141.50;100.00;63355.56;5049584;28;20052;-77
2022/07/16 10:36:55;;;;;;;5.75;1.70;;;;;;;-141.50;100.00;63355.56;5049762;28;20049;-77
2022/07/16 10:39:24;;;;;;;5.07;2.00;;;;;;;-141.50;100.00;63355.56;5029719;28;20065;-77
2022/07/16 10:41:51;;;;;;;8.32;2.25;;;;;;;-141.50;100.00;63355.56;5045960;28;20198;-77
2022/07/16 10:44:20;;;;;;;5.05;2.10;;;;;;;-141.50;100.00;63355.56;5034196;28;20115;-79
2022/07/16 10:46:57;;;;;;;5.50;1.90;;;;;;;-141.50;100.00;63355.56;5033860;28;20045;-78
2022/07/16 10:49:26;;;;;;;3.83;1.77;;;;;;;-141.50;100.00;63355.56;5044630;28;20126;-76
2022/07/16 10:52:05;;;;;;;3.78;1.75;;;;;;;-141.50;100.00;63355.56;5041836;28;20064;-78
2022/07/16 10:54:39;;;;;;;6.97;1.80;;;;;;;-141.50;100.00;63355.56;5044915;28;20048;-77
2022/07/16 10:57:06;;;;;;;5.72;2.28;;;;;;;-141.50;100.00;63355.56;5045753;28;20084;-77
2022/07/16 10:59:43;;;;;;;7.60;1.98;;;;;;;-141.50;100.00;63355.56;5057755;28;20045;-77
2022/07/16 11:02:11;;;;;;;7.65;2.05;;;;;;;-141.50;100.00;63355.56;5073769;28;20033;-77
2022/07/16 11:04:41;;;;;;;9.73;2.10;;;;;;;-141.50;100.00;63355.56;5070425;28;20458;-76
2022/07/16 11:07:13;;;;;;;7.55;2.15;;;;;;;-141.50;100.00;63355.56;5032854;28;20048;-76
2022/07/16 11:09:42;;;;;;;5.88;2.03;;;;;;;-141.50;100.00;63355.56;5049095;28;20084;-76
2022/07/16 11:12:17;;;;;;;7.53;2.25;;;;;;;-141.50;100.00;63355.56;5049851;28;20049;-77
2022/07/16 11:14:47;;;;;;;9.18;2.30;;;;;;;-141.50;100.00;63355.56;5030622;28;20132;-78
2022/07/16 11:17:15;;;;;;;3.78;2.10;;;;;;;-141.50;100.00;63355.56;5030771;28;20081;-77
2022/07/16 11:19:49;;;;;;;7.50;2.25;;;;;;;-141.50;100.00;63355.56;5048790;28;20057;-78